sensor_id;sensor_type;location;lat;lon;timestamp;P1;durP1;ratioP1;P2;durP2;ratioP2
77076;SDS011;66003;52.286;104.306;2023-07-29T00:01:46;8.77;;;6.38;;
77076;SDS011;66003;52.286;104.306;2023-07-29T00:04:12;8.02;;;6.00;;
77076;SDS011;66003;52.286;104.306;2023-07-29T00:06:39;9.75;;;7.90;;
77076;SDS011;66003;52.286;104.306;2023-07-29T00:09:05;10.05;;;7.18;;
77076;SDS011;66003;52.286;104.306;2023-07-29T00:11:31;7.47;;;6.60;;
77076;SDS011;66003;52.286;104.306;2023-07-29T00:14:00;9.63;;;8.02;;
77076;SDS011;66003;52.286;104.306;2023-07-29T00:16:26;7.78;;;6.97;;
77076;SDS011;66003;52.286;104.306;2023-07-29T00:18:53;8.63;;;6.40;;
77076;SDS011;66003;52.286;104.306;2023-07-29T00:21:19;8.68;;;6.00;;
77076;SDS011;66003;52.286;104.306;2023-07-29T00:23:45;8.63;;;6.22;;
77076;SDS011;66003;52.286;104.306;2023-07-29T00:26:11;7.32;;;6.65;;
77076;SDS011;66003;52.286;104.306;2023-07-29T00:28:37;7.68;;;5.72;;
77076;SDS011;66003;52.286;104.306;2023-07-29T00:31:03;6.70;;;6.10;;
77076;SDS011;66003;52.286;104.306;2023-07-29T00:33:30;7.35;;;6.63;;
77076;SDS011;66003;52.286;104.306;2023-07-29T00:35:56;6.63;;;5.53;;
77076;SDS011;66003;52.286;104.306;2023-07-29T00:38:22;7.07;;;6.38;;
77076;SDS011;66003;52.286;104.306;2023-07-29T00:40:48;7.07;;;6.47;;
77076;SDS011;66003;52.286;104.306;2023-07-29T00:43:15;7.07;;;6.32;;
77076;SDS011;66003;52.286;104.306;2023-07-29T00:45:41;7.22;;;6.57;;
77076;SDS011;66003;52.286;104.306;2023-07-29T00:48:09;6.47;;;5.88;;
77076;SDS011;66003;52.286;104.306;2023-07-29T00:50:35;6.95;;;6.22;;
77076;SDS011;66003;52.286;104.306;2023-07-29T00:53:02;6.50;;;5.90;;
77076;SDS011;66003;52.286;104.306;2023-07-29T00:55:28;7.28;;;6.43;;
77076;SDS011;66003;52.286;104.306;2023-07-29T00:57:54;7.57;;;6.80;;
77076;SDS011;66003;52.286;104.306;2023-07-29T01:00:21;8.07;;;7.20;;
77076;SDS011;66003;52.286;104.306;2023-07-29T01:02:48;7.88;;;7.18;;
77076;SDS011;66003;52.286;104.306;2023-07-29T01:05:18;7.55;;;6.88;;
77076;SDS011;66003;52.286;104.306;2023-07-29T01:07:47;7.43;;;6.25;;
77076;SDS011;66003;52.286;104.306;2023-07-29T01:10:26;8.00;;;7.05;;
77076;SDS011;66003;52.286;104.306;2023-07-29T01:16:12;7.60;;;6.90;;
77076;SDS011;66003;52.286;104.306;2023-07-29T01:18:45;9.07;;;8.32;;
77076;SDS011;66003;52.286;104.306;2023-07-29T01:21:15;8.85;;;7.47;;
77076;SDS011;66003;52.286;104.306;2023-07-29T01:23:43;10.38;;;9.52;;
77076;SDS011;66003;52.286;104.306;2023-07-29T01:26:09;8.38;;;6.82;;
77076;SDS011;66003;52.286;104.306;2023-07-29T01:28:35;8.55;;;6.88;;
77076;SDS011;66003;52.286;104.306;2023-07-29T01:31:13;9.60;;;7.18;;
77076;SDS011;66003;52.286;104.306;2023-07-29T01:33:56;8.13;;;7.32;;
77076;SDS011;66003;52.286;104.306;2023-07-29T01:36:41;8.95;;;6.78;;
77076;SDS011;66003;52.286;104.306;2023-07-29T01:39:08;8.10;;;7.22;;
77076;SDS011;66003;52.286;104.306;2023-07-29T01:41:36;10.30;;;7.90;;
77076;SDS011;66003;52.286;104.306;2023-07-29T01:44:03;7.45;;;6.72;;
77076;SDS011;66003;52.286;104.306;2023-07-29T01:46:33;8.32;;;7.60;;
77076;SDS011;66003;52.286;104.306;2023-07-29T01:48:59;12.75;;;7.15;;
77076;SDS011;66003;52.286;104.306;2023-07-29T01:51:25;8.90;;;7.95;;
77076;SDS011;66003;52.286;104.306;2023-07-29T01:53:51;9.48;;;8.57;;
77076;SDS011;66003;52.286;104.306;2023-07-29T01:56:18;7.53;;;6.70;;
77076;SDS011;66003;52.286;104.306;2023-07-29T01:58:45;7.55;;;6.85;;
77076;SDS011;66003;52.286;104.306;2023-07-29T02:01:11;8.20;;;7.40;;
77076;SDS011;66003;52.286;104.306;2023-07-29T02:03:38;7.55;;;6.43;;
77076;SDS011;66003;52.286;104.306;2023-07-29T02:06:04;9.73;;;9.02;;
77076;SDS011;66003;52.286;104.306;2023-07-29T02:08:30;9.57;;;8.65;;
77076;SDS011;66003;52.286;104.306;2023-07-29T02:10:56;12.55;;;6.43;;
77076;SDS011;66003;52.286;104.306;2023-07-29T02:13:23;6.85;;;6.18;;
77076;SDS011;66003;52.286;104.306;2023-07-29T02:15:49;7.22;;;6.32;;
77076;SDS011;66003;52.286;104.306;2023-07-29T02:18:17;7.00;;;5.35;;
77076;SDS011;66003;52.286;104.306;2023-07-29T02:20:43;6.32;;;5.72;;
77076;SDS011;66003;52.286;104.306;2023-07-29T02:23:15;6.78;;;6.10;;
77076;SDS011;66003;52.286;104.306;2023-07-29T02:25:44;8.20;;;6.05;;
77076;SDS011;66003;52.286;104.306;2023-07-29T02:28:10;8.60;;;8.00;;
77076;SDS011;66003;52.286;104.306;2023-07-29T02:30:41;7.35;;;6.70;;
77076;SDS011;66003;52.286;104.306;2023-07-29T02:33:10;6.88;;;6.30;;
77076;SDS011;66003;52.286;104.306;2023-07-29T02:35:36;7.43;;;6.82;;
77076;SDS011;66003;52.286;104.306;2023-07-29T02:38:02;14.18;;;7.50;;
77076;SDS011;66003;52.286;104.306;2023-07-29T02:40:28;8.02;;;7.00;;
77076;SDS011;66003;52.286;104.306;2023-07-29T02:42:54;6.35;;;5.55;;
77076;SDS011;66003;52.286;104.306;2023-07-29T02:45:21;6.72;;;5.95;;
77076;SDS011;66003;52.286;104.306;2023-07-29T02:47:47;9.65;;;6.20;;
77076;SDS011;66003;52.286;104.306;2023-07-29T02:50:13;7.03;;;6.43;;
77076;SDS011;66003;52.286;104.306;2023-07-29T02:52:39;6.53;;;5.95;;
77076;SDS011;66003;52.286;104.306;2023-07-29T02:55:05;6.25;;;5.70;;
77076;SDS011;66003;52.286;104.306;2023-07-29T02:57:32;10.52;;;7.95;;
77076;SDS011;66003;52.286;104.306;2023-07-29T02:59:58;6.30;;;5.80;;
77076;SDS011;66003;52.286;104.306;2023-07-29T03:02:24;7.20;;;6.57;;
77076;SDS011;66003;52.286;104.306;2023-07-29T03:04:50;5.43;;;4.90;;
77076;SDS011;66003;52.286;104.306;2023-07-29T03:07:16;4.28;;;3.78;;
77076;SDS011;66003;52.286;104.306;2023-07-29T03:09:43;5.45;;;4.95;;
77076;SDS011;66003;52.286;104.306;2023-07-29T03:12:10;4.63;;;4.15;;
77076;SDS011;66003;52.286;104.306;2023-07-29T03:14:36;3.90;;;3.47;;
77076;SDS011;66003;52.286;104.306;2023-07-29T03:17:03;5.38;;;4.82;;
77076;SDS011;66003;52.286;104.306;2023-07-29T03:19:32;3.75;;;2.83;;
77076;SDS011;66003;52.286;104.306;2023-07-29T03:21:58;4.80;;;3.33;;
77076;SDS011;66003;52.286;104.306;2023-07-29T03:24:26;5.60;;;3.70;;
77076;SDS011;66003;52.286;104.306;2023-07-29T03:26:52;6.35;;;3.72;;
77076;SDS011;66003;52.286;104.306;2023-07-29T03:29:18;3.78;;;2.72;;
77076;SDS011;66003;52.286;104.306;2023-07-29T03:31:45;11.70;;;4.00;;
77076;SDS011;66003;52.286;104.306;2023-07-29T03:34:11;4.70;;;3.70;;
77076;SDS011;66003;52.286;104.306;2023-07-29T03:36:37;4.78;;;3.85;;
77076;SDS011;66003;52.286;104.306;2023-07-29T03:39:04;4.68;;;4.13;;
77076;SDS011;66003;52.286;104.306;2023-07-29T03:41:30;4.78;;;3.78;;
77076;SDS011;66003;52.286;104.306;2023-07-29T03:43:56;5.22;;;3.97;;
77076;SDS011;66003;52.286;104.306;2023-07-29T03:46:23;6.35;;;3.80;;
77076;SDS011;66003;52.286;104.306;2023-07-29T03:48:49;5.90;;;4.15;;
77076;SDS011;66003;52.286;104.306;2023-07-29T03:51:16;4.80;;;3.47;;
77076;SDS011;66003;52.286;104.306;2023-07-29T03:53:42;6.22;;;5.32;;
77076;SDS011;66003;52.286;104.306;2023-07-29T03:56:08;6.80;;;4.75;;
77076;SDS011;66003;52.286;104.306;2023-07-29T03:58:34;7.43;;;5.68;;
77076;SDS011;66003;52.286;104.306;2023-07-29T04:01:00;5.78;;;4.50;;
77076;SDS011;66003;52.286;104.306;2023-07-29T04:03:26;7.40;;;4.05;;
77076;SDS011;66003;52.286;104.306;2023-07-29T04:05:53;5.70;;;4.25;;
77076;SDS011;66003;52.286;104.306;2023-07-29T04:08:19;8.52;;;4.63;;
77076;SDS011;66003;52.286;104.306;2023-07-29T04:10:45;6.20;;;5.15;;
77076;SDS011;66003;52.286;104.306;2023-07-29T04:13:11;7.55;;;4.97;;
77076;SDS011;66003;52.286;104.306;2023-07-29T04:15:37;8.70;;;4.75;;
77076;SDS011;66003;52.286;104.306;2023-07-29T04:18:03;7.18;;;4.47;;
77076;SDS011;66003;52.286;104.306;2023-07-29T04:20:29;6.55;;;5.63;;
77076;SDS011;66003;52.286;104.306;2023-07-29T04:22:55;7.95;;;4.32;;
77076;SDS011;66003;52.286;104.306;2023-07-29T04:25:21;6.13;;;4.60;;
77076;SDS011;66003;52.286;104.306;2023-07-29T04:27:48;6.43;;;4.93;;
77076;SDS011;66003;52.286;104.306;2023-07-29T04:30:14;6.55;;;4.65;;
77076;SDS011;66003;52.286;104.306;2023-07-29T04:32:40;9.23;;;5.43;;
77076;SDS011;66003;52.286;104.306;2023-07-29T04:35:08;5.63;;;4.57;;
77076;SDS011;66003;52.286;104.306;2023-07-29T04:37:34;6.35;;;5.65;;
77076;SDS011;66003;52.286;104.306;2023-07-29T04:40:01;5.93;;;5.00;;
77076;SDS011;66003;52.286;104.306;2023-07-29T04:42:29;5.78;;;4.10;;
77076;SDS011;66003;52.286;104.306;2023-07-29T04:44:55;5.63;;;4.88;;
77076;SDS011;66003;52.286;104.306;2023-07-29T04:47:21;6.75;;;5.30;;
77076;SDS011;66003;52.286;104.306;2023-07-29T04:49:47;6.05;;;4.80;;
77076;SDS011;66003;52.286;104.306;2023-07-29T04:52:14;8.40;;;5.22;;
77076;SDS011;66003;52.286;104.306;2023-07-29T04:54:41;8.68;;;7.88;;
77076;SDS011;66003;52.286;104.306;2023-07-29T04:57:07;5.10;;;4.32;;
77076;SDS011;66003;52.286;104.306;2023-07-29T04:59:33;7.40;;;4.85;;
77076;SDS011;66003;52.286;104.306;2023-07-29T05:01:59;6.38;;;4.95;;
77076;SDS011;66003;52.286;104.306;2023-07-29T05:04:25;7.72;;;4.80;;
77076;SDS011;66003;52.286;104.306;2023-07-29T05:06:51;7.38;;;4.95;;
77076;SDS011;66003;52.286;104.306;2023-07-29T05:09:18;7.63;;;5.50;;
77076;SDS011;66003;52.286;104.306;2023-07-29T05:11:48;6.47;;;4.95;;
77076;SDS011;66003;52.286;104.306;2023-07-29T05:14:15;8.13;;;5.20;;
77076;SDS011;66003;52.286;104.306;2023-07-29T05:16:43;6.18;;;5.57;;
77076;SDS011;66003;52.286;104.306;2023-07-29T05:19:09;6.55;;;5.15;;
77076;SDS011;66003;52.286;104.306;2023-07-29T05:21:36;6.05;;;5.13;;
77076;SDS011;66003;52.286;104.306;2023-07-29T05:24:03;6.53;;;5.18;;
77076;SDS011;66003;52.286;104.306;2023-07-29T05:26:30;7.40;;;5.05;;
77076;SDS011;66003;52.286;104.306;2023-07-29T05:28:56;7.25;;;5.50;;
77076;SDS011;66003;52.286;104.306;2023-07-29T05:31:22;9.52;;;4.90;;
77076;SDS011;66003;52.286;104.306;2023-07-29T05:33:48;12.00;;;5.68;;
77076;SDS011;66003;52.286;104.306;2023-07-29T05:36:15;8.52;;;5.35;;
77076;SDS011;66003;52.286;104.306;2023-07-29T05:38:41;6.80;;;5.10;;
77076;SDS011;66003;52.286;104.306;2023-07-29T05:41:07;6.93;;;5.03;;
77076;SDS011;66003;52.286;104.306;2023-07-29T05:43:33;10.00;;;5.85;;
77076;SDS011;66003;52.286;104.306;2023-07-29T05:46:00;8.02;;;6.32;;
77076;SDS011;66003;52.286;104.306;2023-07-29T05:48:26;8.95;;;6.30;;
77076;SDS011;66003;52.286;104.306;2023-07-29T05:50:53;8.45;;;6.15;;
77076;SDS011;66003;52.286;104.306;2023-07-29T05:53:19;6.47;;;5.60;;
77076;SDS011;66003;52.286;104.306;2023-07-29T05:55:45;7.53;;;5.93;;
77076;SDS011;66003;52.286;104.306;2023-07-29T05:58:11;8.38;;;5.72;;
77076;SDS011;66003;52.286;104.306;2023-07-29T06:00:37;7.35;;;5.40;;
77076;SDS011;66003;52.286;104.306;2023-07-29T06:03:03;7.00;;;5.50;;
77076;SDS011;66003;52.286;104.306;2023-07-29T06:05:30;7.28;;;4.97;;
77076;SDS011;66003;52.286;104.306;2023-07-29T06:07:56;6.57;;;4.88;;
77076;SDS011;66003;52.286;104.306;2023-07-29T06:10:22;6.55;;;5.13;;
77076;SDS011;66003;52.286;104.306;2023-07-29T06:12:49;7.85;;;5.43;;
77076;SDS011;66003;52.286;104.306;2023-07-29T06:15:15;5.63;;;4.43;;
77076;SDS011;66003;52.286;104.306;2023-07-29T06:17:41;7.78;;;6.97;;
77076;SDS011;66003;52.286;104.306;2023-07-29T06:20:08;6.43;;;5.30;;
77076;SDS011;66003;52.286;104.306;2023-07-29T06:22:35;6.70;;;4.65;;
77076;SDS011;66003;52.286;104.306;2023-07-29T06:25:01;7.65;;;5.07;;
77076;SDS011;66003;52.286;104.306;2023-07-29T06:27:30;5.95;;;4.65;;
77076;SDS011;66003;52.286;104.306;2023-07-29T06:29:59;9.70;;;4.93;;
77076;SDS011;66003;52.286;104.306;2023-07-29T06:32:41;5.32;;;3.90;;
77076;SDS011;66003;52.286;104.306;2023-07-29T06:35:07;7.65;;;6.57;;
77076;SDS011;66003;52.286;104.306;2023-07-29T06:37:34;8.85;;;4.70;;
77076;SDS011;66003;52.286;104.306;2023-07-29T06:40:00;7.00;;;6.20;;
77076;SDS011;66003;52.286;104.306;2023-07-29T06:42:26;8.65;;;6.60;;
77076;SDS011;66003;52.286;104.306;2023-07-29T06:44:52;5.63;;;4.30;;
77076;SDS011;66003;52.286;104.306;2023-07-29T06:47:18;6.15;;;4.60;;
77076;SDS011;66003;52.286;104.306;2023-07-29T06:49:45;6.50;;;4.30;;
77076;SDS011;66003;52.286;104.306;2023-07-29T06:52:11;5.07;;;4.07;;
77076;SDS011;66003;52.286;104.306;2023-07-29T06:54:38;6.72;;;4.40;;
77076;SDS011;66003;52.286;104.306;2023-07-29T06:57:04;5.95;;;4.65;;
77076;SDS011;66003;52.286;104.306;2023-07-29T06:59:30;4.63;;;3.40;;
77076;SDS011;66003;52.286;104.306;2023-07-29T07:01:57;5.80;;;3.75;;
77076;SDS011;66003;52.286;104.306;2023-07-29T07:04:23;5.00;;;3.35;;
77076;SDS011;66003;52.286;104.306;2023-07-29T07:06:50;8.85;;;3.53;;
77076;SDS011;66003;52.286;104.306;2023-07-29T07:09:16;4.45;;;3.67;;
77076;SDS011;66003;52.286;104.306;2023-07-29T07:11:42;10.23;;;5.45;;
77076;SDS011;66003;52.286;104.306;2023-07-29T07:14:08;6.10;;;3.70;;
77076;SDS011;66003;52.286;104.306;2023-07-29T07:16:34;6.47;;;4.95;;
77076;SDS011;66003;52.286;104.306;2023-07-29T07:19:02;6.70;;;4.30;;
77076;SDS011;66003;52.286;104.306;2023-07-29T07:21:29;6.20;;;4.63;;
77076;SDS011;66003;52.286;104.306;2023-07-29T07:23:55;5.47;;;4.35;;
77076;SDS011;66003;52.286;104.306;2023-07-29T07:26:21;6.13;;;4.30;;
77076;SDS011;66003;52.286;104.306;2023-07-29T07:28:48;7.65;;;4.13;;
77076;SDS011;66003;52.286;104.306;2023-07-29T07:31:14;5.20;;;3.85;;
77076;SDS011;66003;52.286;104.306;2023-07-29T07:33:41;9.38;;;4.88;;
77076;SDS011;66003;52.286;104.306;2023-07-29T07:36:07;8.75;;;4.60;;
77076;SDS011;66003;52.286;104.306;2023-07-29T07:38:34;6.50;;;4.22;;
77076;SDS011;66003;52.286;104.306;2023-07-29T07:41:00;6.05;;;4.10;;
77076;SDS011;66003;52.286;104.306;2023-07-29T07:43:26;5.78;;;4.20;;
77076;SDS011;66003;52.286;104.306;2023-07-29T07:46:00;8.38;;;4.38;;
77076;SDS011;66003;52.286;104.306;2023-07-29T07:48:29;5.60;;;3.83;;
77076;SDS011;66003;52.286;104.306;2023-07-29T07:50:57;5.65;;;4.30;;
77076;SDS011;66003;52.286;104.306;2023-07-29T07:53:23;7.43;;;4.35;;
77076;SDS011;66003;52.286;104.306;2023-07-29T07:55:51;6.10;;;4.07;;
77076;SDS011;66003;52.286;104.306;2023-07-29T07:58:17;6.95;;;4.05;;
77076;SDS011;66003;52.286;104.306;2023-07-29T08:00:43;7.13;;;3.65;;
77076;SDS011;66003;52.286;104.306;2023-07-29T08:03:09;6.45;;;4.05;;
77076;SDS011;66003;52.286;104.306;2023-07-29T08:05:35;5.47;;;3.58;;
77076;SDS011;66003;52.286;104.306;2023-07-29T08:08:02;5.90;;;3.72;;
77076;SDS011;66003;52.286;104.306;2023-07-29T08:10:28;5.18;;;4.05;;
77076;SDS011;66003;52.286;104.306;2023-07-29T08:12:54;4.95;;;3.67;;
77076;SDS011;66003;52.286;104.306;2023-07-29T08:15:20;5.88;;;3.85;;
77076;SDS011;66003;52.286;104.306;2023-07-29T08:17:46;8.43;;;3.70;;
77076;SDS011;66003;52.286;104.306;2023-07-29T08:20:12;5.78;;;3.97;;
77076;SDS011;66003;52.286;104.306;2023-07-29T08:22:39;6.05;;;3.80;;
77076;SDS011;66003;52.286;104.306;2023-07-29T08:25:05;5.32;;;3.92;;
77076;SDS011;66003;52.286;104.306;2023-07-29T08:27:33;5.63;;;3.90;;
77076;SDS011;66003;52.286;104.306;2023-07-29T08:29:59;4.70;;;3.40;;
77076;SDS011;66003;52.286;104.306;2023-07-29T08:32:26;6.38;;;4.53;;
77076;SDS011;66003;52.286;104.306;2023-07-29T08:34:52;7.88;;;4.38;;
77076;SDS011;66003;52.286;104.306;2023-07-29T08:37:18;7.15;;;4.22;;
77076;SDS011;66003;52.286;104.306;2023-07-29T08:39:44;9.32;;;4.35;;
77076;SDS011;66003;52.286;104.306;2023-07-29T08:42:11;9.93;;;4.90;;
77076;SDS011;66003;52.286;104.306;2023-07-29T08:44:43;8.32;;;4.05;;
77076;SDS011;66003;52.286;104.306;2023-07-29T08:47:11;10.80;;;4.72;;
77076;SDS011;66003;52.286;104.306;2023-07-29T08:49:39;7.55;;;5.18;;
77076;SDS011;66003;52.286;104.306;2023-07-29T08:52:07;8.07;;;4.70;;
77076;SDS011;66003;52.286;104.306;2023-07-29T08:54:33;11.93;;;4.55;;
77076;SDS011;66003;52.286;104.306;2023-07-29T08:57:00;8.98;;;4.07;;
77076;SDS011;66003;52.286;104.306;2023-07-29T08:59:27;8.02;;;4.65;;
77076;SDS011;66003;52.286;104.306;2023-07-29T09:01:54;8.13;;;4.22;;
77076;SDS011;66003;52.286;104.306;2023-07-29T09:04:22;10.23;;;4.80;;
77076;SDS011;66003;52.286;104.306;2023-07-29T09:06:50;9.10;;;5.45;;
77076;SDS011;66003;52.286;104.306;2023-07-29T09:09:17;5.28;;;4.28;;
77076;SDS011;66003;52.286;104.306;2023-07-29T09:11:43;8.55;;;4.43;;
77076;SDS011;66003;52.286;104.306;2023-07-29T09:14:10;6.35;;;4.55;;
77076;SDS011;66003;52.286;104.306;2023-07-29T09:16:36;8.18;;;4.85;;
77076;SDS011;66003;52.286;104.306;2023-07-29T09:19:03;6.50;;;3.70;;
77076;SDS011;66003;52.286;104.306;2023-07-29T09:21:30;9.52;;;5.90;;
77076;SDS011;66003;52.286;104.306;2023-07-29T09:23:57;5.68;;;4.32;;
77076;SDS011;66003;52.286;104.306;2023-07-29T09:26:29;5.10;;;3.90;;
77076;SDS011;66003;52.286;104.306;2023-07-29T09:28:56;7.40;;;3.65;;
77076;SDS011;66003;52.286;104.306;2023-07-29T09:31:24;7.40;;;4.15;;
77076;SDS011;66003;52.286;104.306;2023-07-29T09:33:58;10.00;;;4.70;;
77076;SDS011;66003;52.286;104.306;2023-07-29T09:36:32;9.80;;;4.35;;
77076;SDS011;66003;52.286;104.306;2023-07-29T09:38:59;6.47;;;5.03;;
77076;SDS011;66003;52.286;104.306;2023-07-29T09:41:26;7.65;;;5.00;;
77076;SDS011;66003;52.286;104.306;2023-07-29T09:44:01;6.25;;;4.10;;
77076;SDS011;66003;52.286;104.306;2023-07-29T09:46:33;24.95;;;13.70;;
77076;SDS011;66003;52.286;104.306;2023-07-29T09:49:02;7.90;;;5.38;;
77076;SDS011;66003;52.286;104.306;2023-07-29T09:51:33;8.45;;;4.13;;
77076;SDS011;66003;52.286;104.306;2023-07-29T09:54:03;5.75;;;4.88;;
77076;SDS011;66003;52.286;104.306;2023-07-29T09:56:30;8.02;;;5.82;;
77076;SDS011;66003;52.286;104.306;2023-07-29T09:58:57;6.40;;;4.50;;
77076;SDS011;66003;52.286;104.306;2023-07-29T10:01:24;8.32;;;6.18;;
77076;SDS011;66003;52.286;104.306;2023-07-29T10:03:50;7.63;;;4.53;;
77076;SDS011;66003;52.286;104.306;2023-07-29T10:06:17;6.88;;;4.65;;
77076;SDS011;66003;52.286;104.306;2023-07-29T10:08:44;9.25;;;6.30;;
77076;SDS011;66003;52.286;104.306;2023-07-29T10:11:11;5.47;;;4.18;;
77076;SDS011;66003;52.286;104.306;2023-07-29T10:13:37;5.63;;;3.83;;
77076;SDS011;66003;52.286;104.306;2023-07-29T10:16:04;7.80;;;4.38;;
77076;SDS011;66003;52.286;104.306;2023-07-29T10:18:32;8.15;;;3.92;;
77076;SDS011;66003;52.286;104.306;2023-07-29T10:21:00;6.88;;;3.75;;
77076;SDS011;66003;52.286;104.306;2023-07-29T10:23:28;5.43;;;3.72;;
77076;SDS011;66003;52.286;104.306;2023-07-29T10:26:03;5.70;;;3.05;;
77076;SDS011;66003;52.286;104.306;2023-07-29T10:28:31;7.45;;;3.70;;
77076;SDS011;66003;52.286;104.306;2023-07-29T10:30:58;13.52;;;4.13;;
77076;SDS011;66003;52.286;104.306;2023-07-29T10:33:26;5.90;;;3.60;;
77076;SDS011;66003;52.286;104.306;2023-07-29T10:35:53;6.63;;;3.92;;
77076;SDS011;66003;52.286;104.306;2023-07-29T10:38:21;7.82;;;4.32;;
77076;SDS011;66003;52.286;104.306;2023-07-29T10:40:53;9.60;;;4.53;;
77076;SDS011;66003;52.286;104.306;2023-07-29T10:43:25;7.72;;;4.07;;
77076;SDS011;66003;52.286;104.306;2023-07-29T10:45:54;8.55;;;4.22;;
77076;SDS011;66003;52.286;104.306;2023-07-29T10:53:54;8.52;;;4.10;;
77076;SDS011;66003;52.286;104.306;2023-07-29T10:56:31;6.35;;;5.32;;
77076;SDS011;66003;52.286;104.306;2023-07-29T11:12:35;9.40;;;3.67;;
77076;SDS011;66003;52.286;104.306;2023-07-29T11:15:03;9.13;;;4.75;;
77076;SDS011;66003;52.286;104.306;2023-07-29T11:17:33;9.60;;;4.00;;
77076;SDS011;66003;52.286;104.306;2023-07-29T11:20:02;7.43;;;4.00;;
77076;SDS011;66003;52.286;104.306;2023-07-29T11:22:30;7.07;;;4.10;;
77076;SDS011;66003;52.286;104.306;2023-07-29T11:24:56;7.03;;;4.38;;
77076;SDS011;66003;52.286;104.306;2023-07-29T11:27:23;13.65;;;5.30;;
77076;SDS011;66003;52.286;104.306;2023-07-29T11:29:49;6.38;;;4.10;;
77076;SDS011;66003;52.286;104.306;2023-07-29T11:32:15;10.00;;;5.75;;
77076;SDS011;66003;52.286;104.306;2023-07-29T11:34:42;6.93;;;3.88;;
77076;SDS011;66003;52.286;104.306;2023-07-29T11:37:10;6.15;;;3.50;;
77076;SDS011;66003;52.286;104.306;2023-07-29T11:39:44;6.05;;;4.10;;
77076;SDS011;66003;52.286;104.306;2023-07-29T11:42:11;5.00;;;3.53;;
77076;SDS011;66003;52.286;104.306;2023-07-29T11:44:38;9.90;;;5.35;;
77076;SDS011;66003;52.286;104.306;2023-07-29T11:47:11;5.82;;;3.40;;
77076;SDS011;66003;52.286;104.306;2023-07-29T11:49:40;6.60;;;4.07;;
77076;SDS011;66003;52.286;104.306;2023-07-29T11:52:07;5.45;;;3.45;;
77076;SDS011;66003;52.286;104.306;2023-07-29T11:54:35;7.38;;;5.65;;
77076;SDS011;66003;52.286;104.306;2023-07-29T11:57:03;6.75;;;3.90;;
77076;SDS011;66003;52.286;104.306;2023-07-29T11:59:34;6.43;;;4.28;;
77076;SDS011;66003;52.286;104.306;2023-07-29T12:02:02;8.00;;;4.55;;
77076;SDS011;66003;52.286;104.306;2023-07-29T12:07:00;6.65;;;4.10;;
77076;SDS011;66003;52.286;104.306;2023-07-29T12:09:27;11.85;;;4.63;;
77076;SDS011;66003;52.286;104.306;2023-07-29T12:11:54;7.93;;;4.60;;
77076;SDS011;66003;52.286;104.306;2023-07-29T12:14:20;7.80;;;4.78;;
77076;SDS011;66003;52.286;104.306;2023-07-29T12:16:50;7.28;;;4.22;;
77076;SDS011;66003;52.286;104.306;2023-07-29T12:19:17;6.60;;;4.70;;
77076;SDS011;66003;52.286;104.306;2023-07-29T12:21:44;7.75;;;5.32;;
77076;SDS011;66003;52.286;104.306;2023-07-29T12:24:13;7.13;;;3.88;;
77076;SDS011;66003;52.286;104.306;2023-07-29T12:26:42;12.02;;;4.68;;
77076;SDS011;66003;52.286;104.306;2023-07-29T12:31:42;8.30;;;4.32;;
77076;SDS011;66003;52.286;104.306;2023-07-29T12:34:08;6.50;;;4.25;;
77076;SDS011;66003;52.286;104.306;2023-07-29T12:36:45;7.50;;;4.43;;
77076;SDS011;66003;52.286;104.306;2023-07-29T12:39:16;7.95;;;4.97;;
77076;SDS011;66003;52.286;104.306;2023-07-29T12:44:29;6.93;;;4.57;;
77076;SDS011;66003;52.286;104.306;2023-07-29T12:47:07;8.02;;;4.95;;
77076;SDS011;66003;52.286;104.306;2023-07-29T12:49:34;8.80;;;5.20;;
77076;SDS011;66003;52.286;104.306;2023-07-29T12:52:01;8.27;;;5.20;;
77076;SDS011;66003;52.286;104.306;2023-07-29T12:54:27;8.38;;;5.50;;
77076;SDS011;66003;52.286;104.306;2023-07-29T12:56:53;10.45;;;6.32;;
77076;SDS011;66003;52.286;104.306;2023-07-29T12:59:20;7.95;;;4.90;;
77076;SDS011;66003;52.286;104.306;2023-07-29T13:01:46;8.27;;;5.00;;
77076;SDS011;66003;52.286;104.306;2023-07-29T13:04:12;9.38;;;5.68;;
77076;SDS011;66003;52.286;104.306;2023-07-29T13:06:38;7.05;;;4.63;;
77076;SDS011;66003;52.286;104.306;2023-07-29T13:09:04;7.88;;;4.20;;
77076;SDS011;66003;52.286;104.306;2023-07-29T13:11:31;6.15;;;4.65;;
77076;SDS011;66003;52.286;104.306;2023-07-29T13:14:00;7.70;;;4.32;;
77076;SDS011;66003;52.286;104.306;2023-07-29T13:16:29;7.55;;;3.83;;
77076;SDS011;66003;52.286;104.306;2023-07-29T13:18:56;7.93;;;4.05;;
77076;SDS011;66003;52.286;104.306;2023-07-29T13:21:22;6.25;;;4.00;;
77076;SDS011;66003;52.286;104.306;2023-07-29T13:23:49;6.60;;;4.72;;
77076;SDS011;66003;52.286;104.306;2023-07-29T13:26:15;6.65;;;3.97;;
77076;SDS011;66003;52.286;104.306;2023-07-29T13:28:43;6.90;;;4.65;;
77076;SDS011;66003;52.286;104.306;2023-07-29T13:31:09;10.85;;;4.28;;
77076;SDS011;66003;52.286;104.306;2023-07-29T13:33:35;7.03;;;4.10;;
77076;SDS011;66003;52.286;104.306;2023-07-29T13:36:01;9.75;;;4.70;;
77076;SDS011;66003;52.286;104.306;2023-07-29T13:38:29;8.98;;;4.40;;
77076;SDS011;66003;52.286;104.306;2023-07-29T13:40:56;6.97;;;4.13;;
77076;SDS011;66003;52.286;104.306;2023-07-29T13:43:22;7.88;;;5.70;;
77076;SDS011;66003;52.286;104.306;2023-07-29T13:45:50;8.13;;;4.70;;
77076;SDS011;66003;52.286;104.306;2023-07-29T13:48:20;8.00;;;4.70;;
77076;SDS011;66003;52.286;104.306;2023-07-29T13:50:46;9.25;;;4.57;;
77076;SDS011;66003;52.286;104.306;2023-07-29T13:53:12;7.97;;;4.43;;
77076;SDS011;66003;52.286;104.306;2023-07-29T13:55:39;7.05;;;4.45;;
77076;SDS011;66003;52.286;104.306;2023-07-29T13:58:05;6.43;;;4.38;;
77076;SDS011;66003;52.286;104.306;2023-07-29T14:00:31;9.23;;;4.97;;
77076;SDS011;66003;52.286;104.306;2023-07-29T14:02:58;8.73;;;4.60;;
77076;SDS011;66003;52.286;104.306;2023-07-29T14:05:29;7.22;;;3.80;;
77076;SDS011;66003;52.286;104.306;2023-07-29T14:07:55;10.23;;;5.15;;
77076;SDS011;66003;52.286;104.306;2023-07-29T14:10:21;6.78;;;4.60;;
77076;SDS011;66003;52.286;104.306;2023-07-29T14:12:47;7.60;;;6.80;;
77076;SDS011;66003;52.286;104.306;2023-07-29T14:15:14;8.65;;;4.95;;
77076;SDS011;66003;52.286;104.306;2023-07-29T14:17:40;7.03;;;3.97;;
77076;SDS011;66003;52.286;104.306;2023-07-29T14:20:06;7.60;;;4.85;;
77076;SDS011;66003;52.286;104.306;2023-07-29T14:22:33;7.40;;;4.50;;
77076;SDS011;66003;52.286;104.306;2023-07-29T14:24:59;6.95;;;4.53;;
77076;SDS011;66003;52.286;104.306;2023-07-29T14:27:25;8.43;;;4.78;;
77076;SDS011;66003;52.286;104.306;2023-07-29T14:29:53;9.10;;;4.82;;
77076;SDS011;66003;52.286;104.306;2023-07-29T14:32:22;8.32;;;4.50;;
77076;SDS011;66003;52.286;104.306;2023-07-29T14:34:48;8.60;;;4.43;;
77076;SDS011;66003;52.286;104.306;2023-07-29T14:37:14;8.02;;;5.03;;
77076;SDS011;66003;52.286;104.306;2023-07-29T14:39:40;7.60;;;4.53;;
77076;SDS011;66003;52.286;104.306;2023-07-29T14:42:07;7.45;;;6.68;;
77076;SDS011;66003;52.286;104.306;2023-07-29T14:44:33;6.93;;;4.57;;
77076;SDS011;66003;52.286;104.306;2023-07-29T14:46:59;8.75;;;5.07;;
77076;SDS011;66003;52.286;104.306;2023-07-29T14:49:25;12.25;;;7.38;;
77076;SDS011;66003;52.286;104.306;2023-07-29T14:51:53;9.95;;;5.35;;